Gemmell, Minnesota
Current Conditions -  °F | °C
As of 6:09 AM on Sunday 21 Dec 2014 (Local Time) from KVWU Reporting Station
Unknown Precip Unknown Precip  
Wind Chill: 28°   Ceiling: 700
Heat Index: 28°   Visibility: 4mi
Dew Point: 28°   Wind: 0mph
Humidity: 100%   Direction: NA
Pressure: 29.81"   Gusts: NA
Location:  47.9892°N, 94.2138°W
Report Text: KVWU 211209Z AUTO 00000KT 4SM UP OVC007 M02/M02 A2981 RMK AO2
Loading
Personal Weather Stations






























Interactive Weather Map New forecast layout! Learn more

10-Day Weather Forecast

Advertisements
Track Severe Weather on mobile